NCAR-RAP Real-Time Weather Data

Output produced by METARs form (12 May 2021  11:19 UTC)
found at http://weather.rap.ucar.edu/surface/
 
KOGB 121053Z AUTO 00000KT 7SM SCT007 OVC012 19/19 A3005 RMK AO2 SLP174 T01940194
KOGB 121032Z AUTO 00000KT 9SM OVC007 20/19 A3003 RMK AO2 CIG 004V009 T02000194
KOGB 121020Z AUTO 00000KT 10SM OVC005 19/19 A3003 RMK AO2 T01940194
KOGB 120953Z AUTO VRB03KT 8SM OVC006 19/19 A3002 RMK AO2 RAE05 SLP161 P0000 T01940194
KOGB 120853Z AUTO 00000KT 9SM -RA OVC008 19/19 A3003 RMK AO2 CIG 004V011 SLP165 P0004 60009 T01940194 58006
KOGB 120813Z AUTO 00000KT 5SM -RA BR BKN008 BKN011 OVC018 19/19 A3003 RMK AO2 LTG DSNT NE P0004 T01940194
KOGB 120753Z AUTO 13004KT 6SM -RA BR SCT007 BKN013 OVC018 19/19 A3004 RMK AO2 LTG DSNT NE SLP168 P0005 T01940194
KOGB 120733Z AUTO 16003KT 6SM -RA BR FEW006 BKN019 OVC100 19/19 A3004 RMK AO2 P0003 T01940194
KOGB 120730Z AUTO 17003KT 5SM -RA BR SCT017 BKN028 OVC100 19/19 A3004 RMK AO2 LTG DSNT E P0003 T01940194
KOGB 120715Z AUTO 12005KT 6SM VCTS -RA BR SCT008 BKN075 OVC100 19/19 A3003 RMK AO2 LTG DSNT E AND W P0002 T01940194
KOGB 120653Z AUTO 14005KT 10SM -RA SCT009 BKN018 OVC055 20/19 A3004 RMK AO2 LTG DSNT E AND S RAB17E46B51 SLP171 P0000 T02000189
KOGB 120648Z AUTO 13006KT 10SM SCT009 OVC018 20/19 A3005 RMK AO2 LTG DSNT E AND S RAB17E46 P0000
KOGB 120553Z AUTO 12005KT 10SM BKN024 BKN060 OVC120 20/18 A3006 RMK AO2 SLP177 T02000183 10228 20200 55005
KOGB 120549Z AUTO 12005KT 10SM BKN026 BKN055 OVC120 20/18 A3006 RMK AO2
KOGB 120510Z AUTO VRB05KT 10SM FEW009 SCT049 BKN120 20/19 A3007 RMK AO2 LTG DSNT S T02000189
KOGB 120453Z AUTO VRB03KT 10SM BKN120 20/19 A3007 RMK AO2 SLP182 T02000189 402890172
KOGB 120353Z AUTO VRB03KT 10SM BKN110 21/19 A3008 RMK AO2 SLP183 T02060189
KOGB 120253Z AUTO 00000KT 10SM CLR 21/19 A3008 RMK AO2 SLP185 T02060189 53015
KOGB 120153Z AUTO 00000KT 10SM CLR 21/18 A3005 RMK AO2 SLP175 T02110183
KOGB 120053Z AUTO 04004KT 10SM SCT050 22/19 A3006 RMK AO2 SLP178 T02220194
KOGB 112353Z AUTO 05006KT 10SM FEW120 23/18 A3004 RMK AO2 SLP170 T02280183 10289 20228 53010
KOGB 112253Z AUTO 03007KT 10SM CLR 24/18 A3002 RMK AO2 SLP164 T02440183
KOGB 112153Z AUTO 35007KT 10SM FEW100 BKN120 27/17 A3002 RMK AO2 SLP163 T02670172
KOGB 112053Z AUTO VRB03KT 10SM FEW055 BKN100 28/16 A3001 RMK AO2 SLP159 T02780161 58018
KOGB 111953Z AUTO 26005KT 10SM SCT047 29/17 A3003 RMK AO2 SLP167 T02890167